Terminal Aerodrome Forecast
Issued by NWS

Home | Current Version | Previous Version | Text Only | Print | Product List | Glossary On
Versions: 1 2 3 4 5 6 7 8 9 10 11 12 13 14 15 16 17
000
FTUS46 KEKA 251731
TAFUKI
TAF
KUKI 251731Z 2518/2618 34003KT P6SM SKC
     FM251900 32008KT P6SM SKC
     FM260300 00000KT P6SM SKC
     FM261100 00000KT 1SM BR VV004
     FM261600 16004KT 5SM BR SCT006=

USA.gov is the U.S. government's official web portal to all federal, state and local government web resources and services.